createdAt,value
2023-03-25T00:02:19.137Z,98991.91
2023-03-25T00:04:51.894Z,98992.75
2023-03-25T00:07:22.933Z,98994.56
2023-03-25T00:09:52.971Z,98994.59
2023-03-25T00:12:25.070Z,98983.28
2023-03-25T00:14:58.539Z,98983.19
2023-03-25T00:17:31.163Z,98991.03
2023-03-25T00:20:02.555Z,98977.91
2023-03-25T00:22:32.116Z,98971.84
2023-03-25T00:25:01.712Z,98971.81
2023-03-25T00:27:33.861Z,98971.84
2023-03-25T00:30:03.427Z,98959.53
2023-03-25T00:32:33.251Z,98954.22
2023-03-25T00:35:02.790Z,98962.94
2023-03-25T00:37:32.342Z,98962.91
2023-03-25T00:40:01.888Z,98955.94
2023-03-25T00:42:35.065Z,98962.06
2023-03-25T00:45:04.634Z,98958.56
2023-03-25T00:47:34.181Z,98969.03
2023-03-25T00:50:03.960Z,98962.94
2023-03-25T00:52:33.517Z,98969.94
2023-03-25T00:55:03.072Z,98962.94
2023-03-25T00:57:35.362Z,98970.81
2023-03-25T01:00:06.531Z,98964.81
2023-03-25T01:02:36.637Z,98964.78
2023-03-25T01:05:07.243Z,98968.19
2023-03-25T01:07:36.761Z,98970.81
2023-03-25T01:10:07.272Z,98970.81
2023-03-25T01:12:39.435Z,98965.53
2023-03-25T01:15:10.718Z,98963.78
2023-03-25T01:17:40.297Z,98961.16
2023-03-25T01:20:11.762Z,98956.75
2023-03-25T01:22:41.432Z,98957.75
2023-03-25T01:25:11.580Z,98954.13
2023-03-25T01:27:43.706Z,98955.00
2023-03-25T01:30:15.025Z,98954.22
2023-03-25T01:32:44.627Z,98960.28
2023-03-25T01:35:14.267Z,98947.13
2023-03-25T01:37:44.797Z,98948.94
2023-03-25T01:40:21.199Z,98941.16
2023-03-25T01:42:53.850Z,98934.25
2023-03-25T01:45:29.876Z,98946.56
2023-03-25T01:48:06.331Z,98933.56
2023-03-25T01:50:37.328Z,98937.94
2023-03-25T01:53:09.782Z,98927.50
2023-03-25T01:55:41.446Z,98923.25
2023-03-25T01:58:16.255Z,98920.69
2023-03-25T02:00:48.662Z,98915.44
2023-03-25T02:03:21.000Z,98911.13
2023-03-25T02:05:57.712Z,98917.28
2023-03-25T02:08:28.620Z,98909.50
2023-03-25T02:10:58.368Z,98905.19
2023-03-25T02:13:30.639Z,98900.00
2023-03-25T02:16:14.078Z,98913.22
2023-03-25T02:18:53.995Z,98905.44
2023-03-25T02:21:50.317Z,98906.38
2023-03-25T02:24:58.084Z,98909.94
2023-03-25T02:27:46.092Z,98915.22
2023-03-25T02:30:43.557Z,98908.31
2023-03-25T02:33:45.793Z,98910.13
2023-03-25T02:36:36.720Z,98907.56
2023-03-25T02:39:15.276Z,98904.06
2023-03-25T02:41:53.216Z,98904.09
2023-03-25T02:44:32.883Z,98900.66
2023-03-25T02:47:07.308Z,98902.38
2023-03-25T02:49:39.381Z,98898.00
2023-03-25T02:52:14.228Z,98900.53
2023-03-25T02:54:47.889Z,98889.06
2023-03-25T02:57:21.399Z,98895.09
2023-03-25T02:59:54.301Z,98903.84
2023-03-25T03:02:26.653Z,98902.13
2023-03-25T03:04:58.825Z,98911.72
2023-03-25T03:07:32.106Z,98907.34
2023-03-25T03:10:13.608Z,98911.66
2023-03-25T03:12:56.739Z,98901.97
2023-03-25T03:15:39.862Z,98901.06
2023-03-25T03:18:17.500Z,98902.69
2023-03-25T03:20:58.221Z,98900.00
2023-03-25T03:23:34.089Z,98901.69
2023-03-25T03:26:12.090Z,98908.56
2023-03-25T03:28:50.613Z,98900.69
2023-03-25T03:31:48.362Z,98911.13
2023-03-25T03:34:24.543Z,98910.19
2023-03-25T03:36:56.800Z,98915.41
2023-03-25T03:39:31.907Z,98916.22
2023-03-25T03:42:09.859Z,98916.09
2023-03-25T03:44:43.385Z,98913.47
2023-03-25T03:47:15.987Z,98913.47
2023-03-25T03:49:49.714Z,98911.69
2023-03-25T03:52:25.754Z,98920.47
2023-03-25T03:54:59.335Z,98915.13
2023-03-25T03:57:35.930Z,98913.38
2023-03-25T04:00:10.114Z,98921.22
2023-03-25T04:02:44.122Z,98921.25
2023-03-25T04:05:16.989Z,98920.28
2023-03-25T04:07:57.159Z,98915.88
2023-03-25T04:10:34.995Z,98914.09
2023-03-25T04:13:11.121Z,98915.91
2023-03-25T04:15:41.293Z,98915.09
2023-03-25T04:18:12.245Z,98924.69
2023-03-25T04:20:44.918Z,98918.50
2023-03-25T04:23:17.279Z,98918.53
2023-03-25T04:25:47.894Z,98909.75
2023-03-25T04:28:20.471Z,98920.16
2023-03-25T04:30:55.676Z,98917.53
2023-03-25T04:33:25.565Z,98921.09
2023-03-25T04:35:55.806Z,98922.03
2023-03-25T04:38:25.475Z,98917.72
2023-03-25T04:40:55.016Z,98923.88
2023-03-25T04:43:28.552Z,98921.28
2023-03-25T04:46:00.368Z,98930.88
2023-03-25T04:48:32.761Z,98934.38
2023-03-25T04:51:03.647Z,98937.00
2023-03-25T04:53:33.328Z,98930.03
2023-03-25T04:56:03.311Z,98932.66
2023-03-25T04:58:37.086Z,98936.13
2023-03-25T05:01:11.667Z,98934.38
2023-03-25T05:03:41.676Z,98933.50
2023-03-25T05:06:11.549Z,98941.31
2023-03-25T05:08:41.078Z,98939.50
2023-03-25T05:11:10.598Z,98943.84
2023-03-25T05:13:42.715Z,98945.66
2023-03-25T05:16:12.280Z,98941.22
2023-03-25T05:18:41.881Z,98936.81
2023-03-25T05:21:12.861Z,98935.13
2023-03-25T05:23:43.409Z,98935.03
2023-03-25T05:26:14.190Z,98936.63
2023-03-25T05:28:46.301Z,98936.69
2023-03-25T05:31:15.815Z,98929.63
2023-03-25T05:33:48.041Z,98927.88
2023-03-25T05:36:18.521Z,98927.75
2023-03-25T05:38:48.521Z,98925.16
2023-03-25T05:41:19.297Z,98917.19
2023-03-25T05:43:52.165Z,98923.13
2023-03-25T05:46:22.114Z,98921.97
2023-03-25T05:48:51.680Z,98928.81
2023-03-25T05:51:22.516Z,98931.13
2023-03-25T05:53:53.435Z,98937.72
2023-03-25T05:56:26.312Z,98938.44
2023-03-25T05:58:59.203Z,98943.56
2023-03-25T06:01:33.318Z,98949.75
2023-03-25T06:04:03.995Z,98943.03
2023-03-25T06:06:36.245Z,98944.59
2023-03-25T06:09:05.974Z,98940.69
2023-03-25T06:11:38.722Z,98954.91
2023-03-25T06:14:10.994Z,98950.97
2023-03-25T06:16:40.516Z,98952.31
2023-03-25T06:19:10.058Z,98959.88
2023-03-25T06:21:39.664Z,98950.34
2023-03-25T06:24:10.402Z,98947.59
2023-03-25T06:26:39.968Z,98945.09
2023-03-25T06:29:12.281Z,98940.13
2023-03-25T06:31:41.916Z,98940.13
2023-03-25T06:34:11.705Z,98939.75
2023-03-25T06:36:41.434Z,98936.22
2023-03-25T06:39:11.376Z,98944.34
2023-03-25T06:41:41.137Z,98942.94
2023-03-25T06:44:13.223Z,98949.63
2023-03-25T06:46:42.849Z,98950.78
2023-03-25T06:49:12.626Z,98944.00
2023-03-25T06:51:42.142Z,98938.78
2023-03-25T06:54:11.668Z,98937.03
2023-03-25T06:56:41.258Z,98932.66
2023-03-25T06:59:13.389Z,98937.00
2023-03-25T07:01:43.253Z,98938.78
2023-03-25T07:04:13.233Z,98947.50
2023-03-25T07:06:42.857Z,98932.50
2023-03-25T07:09:12.438Z,98941.38
2023-03-25T07:11:42.032Z,98925.50
2023-03-25T07:14:14.178Z,98937.00
2023-03-25T07:16:43.759Z,98930.91
2023-03-25T07:19:13.289Z,98936.34
2023-03-25T07:21:42.884Z,98929.28
2023-03-25T07:24:12.476Z,98934.50
2023-03-25T07:26:42.060Z,98932.53
2023-03-25T07:29:14.223Z,98945.59
2023-03-25T07:31:43.890Z,98953.28
2023-03-25T07:34:13.461Z,98953.28
2023-03-25T07:36:43.061Z,98962.94
2023-03-25T07:39:12.656Z,98944.59
2023-03-25T07:41:43.161Z,98949.81
2023-03-25T07:44:18.226Z,98948.56
2023-03-25T07:46:47.977Z,98946.56
2023-03-25T07:49:17.852Z,98946.53
2023-03-25T07:51:47.889Z,98948.81
2023-03-25T07:54:17.434Z,98950.50
2023-03-25T07:56:47.008Z,98947.31
2023-03-25T07:59:19.371Z,98952.53
2023-03-25T08:01:48.926Z,98941.03
2023-03-25T08:04:18.456Z,98936.41
2023-03-25T08:06:47.975Z,98940.91
2023-03-25T08:09:17.450Z,98941.56
2023-03-25T08:11:47.222Z,98944.16
2023-03-25T08:14:19.306Z,98936.91
2023-03-25T08:16:49.223Z,98940.00
2023-03-25T08:19:19.100Z,98942.34
2023-03-25T08:21:48.644Z,98943.44
2023-03-25T08:24:18.177Z,98954.88
2023-03-25T08:26:48.279Z,98953.00
2023-03-25T08:29:20.410Z,98952.06
2023-03-25T08:31:52.621Z,98947.59
2023-03-25T08:34:28.709Z,98954.25
2023-03-25T08:36:59.472Z,98953.25
2023-03-25T08:42:00.266Z,98942.91
2023-03-25T08:44:32.336Z,98949.53
2023-03-25T08:47:02.034Z,98954.59
2023-03-25T08:49:31.674Z,98960.19
2023-03-25T08:52:02.107Z,98962.09
2023-03-25T08:54:31.928Z,98955.06
2023-03-25T08:57:01.576Z,98958.03
2023-03-25T08:59:33.750Z,98956.72
2023-03-25T09:02:03.796Z,98953.19
2023-03-25T09:04:33.640Z,98952.28
2023-03-25T09:07:10.512Z,98944.91
2023-03-25T09:09:41.472Z,98949.41
2023-03-25T09:12:11.732Z,98949.09
2023-03-25T09:14:44.020Z,98944.19
2023-03-25T09:17:13.537Z,98933.53
2023-03-25T09:19:43.060Z,98946.50
2023-03-25T09:22:12.644Z,98930.34
2023-03-25T09:24:42.340Z,98944.09
2023-03-25T09:27:12.314Z,98929.31
2023-03-25T09:29:44.593Z,98929.88
2023-03-25T09:32:15.190Z,98934.84
2023-03-25T09:34:45.107Z,98936.34
2023-03-25T09:37:14.956Z,98931.59
2023-03-25T09:39:44.534Z,98928.16
2023-03-25T09:42:32.501Z,98944.31
2023-03-25T09:45:15.500Z,98930.38
2023-03-25T09:47:55.294Z,98942.44
2023-03-25T09:50:26.375Z,98937.03
2023-03-25T09:53:00.472Z,98944.63
2023-03-25T09:55:35.203Z,98945.44
2023-03-25T09:58:18.846Z,98945.69
2023-03-25T10:00:56.930Z,98950.72
2023-03-25T10:03:32.026Z,98940.31
2023-03-25T10:06:14.792Z,98939.84
2023-03-25T10:09:13.844Z,98936.50
2023-03-25T10:11:51.043Z,98936.72
2023-03-25T10:14:24.760Z,98930.41
2023-03-25T10:17:07.994Z,98933.75
2023-03-25T10:19:56.853Z,98932.50
2023-03-25T10:22:31.360Z,98921.91
2023-03-25T10:25:04.212Z,98922.72
2023-03-25T10:27:40.031Z,98916.00
2023-03-25T10:30:15.960Z,98926.47
2023-03-25T10:32:49.653Z,98925.19
2023-03-25T10:35:23.143Z,98918.66
2023-03-25T10:37:58.091Z,98921.41
2023-03-25T10:40:32.643Z,98924.94
2023-03-25T10:43:17.139Z,98925.06
2023-03-25T10:45:48.591Z,98920.38
2023-03-25T10:48:25.688Z,98916.81
2023-03-25T10:51:03.798Z,98909.03
2023-03-25T10:53:33.623Z,98916.34
2023-03-25T10:56:07.814Z,98907.03
2023-03-25T10:58:42.445Z,98892.66
2023-03-25T11:01:15.704Z,98906.38
2023-03-25T11:03:52.153Z,98903.31
2023-03-25T11:06:29.864Z,98894.69
2023-03-25T11:09:01.616Z,98898.97
2023-03-25T11:11:35.938Z,98883.84
2023-03-25T11:14:06.124Z,98880.72
2023-03-25T11:16:36.976Z,98877.16
2023-03-25T11:19:09.767Z,98876.38
2023-03-25T11:21:39.290Z,98881.97
2023-03-25T11:24:09.823Z,98880.81
2023-03-25T11:26:41.913Z,98880.38
2023-03-25T11:29:16.165Z,98874.84
2023-03-25T11:31:46.510Z,98871.81
2023-03-25T11:34:24.282Z,98870.84
2023-03-25T11:36:57.817Z,98874.50
2023-03-25T11:39:35.820Z,98876.06
2023-03-25T11:42:17.885Z,98873.59
2023-03-25T11:44:53.843Z,98879.22
2023-03-25T11:47:28.355Z,98844.69
2023-03-25T11:50:01.178Z,98863.28
2023-03-25T11:52:38.321Z,98866.50
2023-03-25T11:55:09.029Z,98882.59
2023-03-25T11:57:43.264Z,98879.47
2023-03-25T12:00:29.558Z,98880.47
2023-03-25T12:03:03.096Z,98871.88
2023-03-25T12:05:36.701Z,98879.13
2023-03-25T12:08:16.451Z,98879.88
2023-03-25T12:10:54.055Z,98866.44
2023-03-25T12:13:36.082Z,98870.16
2023-03-25T12:16:19.868Z,98873.06
2023-03-25T12:19:02.737Z,98880.16
2023-03-25T12:21:47.669Z,98897.00
2023-03-25T12:24:31.292Z,98889.31
2023-03-25T12:27:15.852Z,98899.72
2023-03-25T12:29:54.821Z,98931.38
2023-03-25T12:32:37.448Z,98922.13
2023-03-25T12:35:22.489Z,98935.53
2023-03-25T12:38:10.689Z,98942.28
2023-03-25T12:40:53.949Z,98948.56
2023-03-25T12:43:32.226Z,98942.94
2023-03-25T12:46:17.698Z,98943.97
2023-03-25T12:49:11.114Z,98946.41
2023-03-25T12:51:50.235Z,98943.41
2023-03-25T12:54:42.378Z,98935.75
2023-03-25T12:57:23.509Z,98941.22
2023-03-25T13:00:11.277Z,98939.50
2023-03-25T13:03:08.966Z,98933.06
2023-03-25T13:05:44.541Z,98930.97
2023-03-25T13:08:19.700Z,98934.97
2023-03-25T13:10:59.867Z,98937.94
2023-03-25T13:13:32.691Z,98926.81
2023-03-25T13:16:08.086Z,98931.44
2023-03-25T13:18:43.771Z,98924.81
2023-03-25T13:21:21.935Z,98925.22
2023-03-25T13:23:57.432Z,98938.75
2023-03-25T13:26:33.158Z,98927.09
2023-03-25T13:29:05.702Z,98920.56
2023-03-25T13:31:38.323Z,98917.22
2023-03-25T13:34:20.856Z,98916.53
2023-03-25T13:37:01.858Z,98914.41
2023-03-25T13:39:36.050Z,98918.69
2023-03-25T13:42:16.316Z,98913.09
2023-03-25T13:44:50.849Z,98908.44
2023-03-25T13:47:26.420Z,98907.59
2023-03-25T13:50:00.862Z,98908.16
2023-03-25T13:52:34.635Z,98892.56
2023-03-25T13:55:11.678Z,98900.28
2023-03-25T13:58:09.448Z,98898.25
2023-03-25T14:01:02.096Z,98907.75
2023-03-25T14:03:48.127Z,98894.59
2023-03-25T14:06:45.446Z,98901.56
2023-03-25T14:09:40.125Z,98903.88
2023-03-25T14:12:12.373Z,98900.78
2023-03-25T14:14:48.070Z,98880.91
2023-03-25T14:17:20.534Z,98900.72
2023-03-25T14:19:55.456Z,98878.44
2023-03-25T14:22:27.269Z,98886.31
2023-03-25T14:24:58.335Z,98874.09
2023-03-25T14:27:31.386Z,98882.03
2023-03-25T14:30:06.120Z,98886.78
2023-03-25T14:32:40.981Z,98889.34
2023-03-25T14:35:41.649Z,98899.44
2023-03-25T14:38:53.271Z,98891.44
2023-03-25T14:42:00.292Z,98896.34
2023-03-25T14:44:33.256Z,98893.38
2023-03-25T14:47:32.288Z,98889.19
2023-03-25T14:50:08.656Z,98893.03
2023-03-25T14:52:43.490Z,98895.81
2023-03-25T14:55:20.362Z,98913.53
2023-03-25T14:57:52.509Z,98902.16
2023-03-25T15:00:29.438Z,98910.13
2023-03-25T15:03:07.691Z,98920.19
2023-03-25T15:05:39.283Z,98930.09
2023-03-25T15:08:17.872Z,98936.53
2023-03-25T15:10:52.848Z,98932.38
2023-03-25T15:13:27.580Z,98930.75
2023-03-25T15:16:01.657Z,98937.25
2023-03-25T15:19:01.399Z,98934.91
2023-03-25T15:21:58.171Z,98927.59
2023-03-25T15:24:31.976Z,98921.38
2023-03-25T15:27:03.989Z,98910.53
2023-03-25T15:29:48.329Z,98907.22
2023-03-25T15:32:54.986Z,98902.88
2023-03-25T15:35:39.956Z,98900.34
2023-03-25T15:38:42.535Z,98895.91
2023-03-25T15:41:26.353Z,98889.50
2023-03-25T15:44:14.797Z,98889.22
2023-03-25T15:47:07.959Z,98883.69
2023-03-25T15:49:52.086Z,98885.13
2023-03-25T15:52:39.382Z,98890.56
2023-03-25T15:55:15.313Z,98888.81
2023-03-25T15:57:48.917Z,98887.06
2023-03-25T16:00:25.441Z,98899.34
2023-03-25T16:03:02.599Z,98882.50
2023-03-25T16:05:34.049Z,98874.75
2023-03-25T16:08:11.526Z,98873.06
2023-03-25T16:10:49.757Z,98867.78
2023-03-25T16:13:24.143Z,98865.97
2023-03-25T16:15:56.551Z,98870.50
2023-03-25T16:18:28.648Z,98880.28
2023-03-25T16:21:01.344Z,98871.56
2023-03-25T16:23:32.959Z,98862.16
2023-03-25T16:26:05.252Z,98873.69
2023-03-25T16:28:36.912Z,98882.53
2023-03-25T16:31:07.441Z,98867.69
2023-03-25T16:33:41.892Z,98867.88
2023-03-25T16:36:19.027Z,98879.34
2023-03-25T16:38:48.582Z,98884.69
2023-03-25T16:41:20.796Z,98887.44
2023-03-25T16:43:50.474Z,98888.41
2023-03-25T16:46:23.762Z,98884.84
2023-03-25T16:48:56.476Z,98889.31
2023-03-25T16:51:30.076Z,98882.41
2023-03-25T16:54:01.189Z,98883.38
2023-03-25T16:56:35.148Z,98882.63
2023-03-25T16:59:07.899Z,98878.28
2023-03-25T17:01:42.763Z,98883.56
2023-03-25T17:04:17.917Z,98874.03
2023-03-25T17:06:53.156Z,98882.78
2023-03-25T17:09:25.820Z,98879.34
2023-03-25T17:12:00.786Z,98883.78
2023-03-25T17:14:33.889Z,98885.53
2023-03-25T17:17:12.560Z,98879.44
2023-03-25T17:19:48.593Z,98889.16
2023-03-25T17:22:23.916Z,98882.13
2023-03-25T17:24:57.557Z,98883.91
2023-03-25T17:27:36.807Z,98877.81
2023-03-25T17:30:20.364Z,98883.09
2023-03-25T17:32:51.227Z,98885.81
2023-03-25T17:35:23.555Z,98886.63
2023-03-25T17:37:53.548Z,98886.63
2023-03-25T17:40:26.246Z,98884.94
2023-03-25T17:42:59.869Z,98893.75
2023-03-25T17:45:29.460Z,98881.56
2023-03-25T17:47:59.177Z,98883.47
2023-03-25T17:50:33.218Z,98879.16
2023-03-25T17:53:02.745Z,98881.81
2023-03-25T17:55:32.326Z,98877.50
2023-03-25T17:58:05.128Z,98877.53
2023-03-25T18:00:35.949Z,98876.59
2023-03-25T18:03:12.795Z,98880.09
2023-03-25T18:05:42.453Z,98881.81
2023-03-25T18:08:15.627Z,98882.75
2023-03-25T18:10:45.699Z,98880.22
2023-03-25T18:13:17.850Z,98884.59
2023-03-25T18:15:47.544Z,98880.16
2023-03-25T18:18:20.152Z,98887.94
2023-03-25T18:20:50.748Z,98895.72
2023-03-25T18:23:20.884Z,98889.56
2023-03-25T18:25:50.776Z,98889.56
2023-03-25T18:28:22.945Z,98892.16
2023-03-25T18:30:55.489Z,98900.69
2023-03-25T18:33:26.418Z,98912.78
2023-03-25T18:35:56.563Z,98916.16
2023-03-25T18:38:28.319Z,98933.47
2023-03-25T18:40:59.236Z,98948.22
2023-03-25T18:43:31.506Z,98938.66
2023-03-25T18:46:01.103Z,98948.22
2023-03-25T18:48:30.676Z,98939.47
2023-03-25T18:51:02.236Z,98937.75
2023-03-25T18:53:32.321Z,98945.75
2023-03-25T18:56:05.033Z,98940.56
2023-03-25T18:58:40.019Z,98949.34
2023-03-25T19:01:10.498Z,98949.38
2023-03-25T19:03:42.817Z,98942.41
2023-03-25T19:06:14.945Z,98950.31
2023-03-25T19:08:45.816Z,98941.63
2023-03-25T19:11:21.720Z,98939.94
2023-03-25T19:13:55.650Z,98951.34
2023-03-25T19:16:25.228Z,98947.88
2023-03-25T19:18:54.801Z,98946.09
2023-03-25T19:21:24.382Z,98950.47
2023-03-25T19:23:54.220Z,98944.34
2023-03-25T19:26:23.879Z,98944.38
2023-03-25T19:28:56.137Z,98953.13
2023-03-25T19:31:25.736Z,98939.16
2023-03-25T19:33:55.276Z,98948.75
2023-03-25T19:36:25.955Z,98948.75
2023-03-25T19:39:05.730Z,98947.03
2023-03-25T19:41:42.225Z,98957.53
2023-03-25T19:44:14.635Z,98941.78
2023-03-25T19:46:44.173Z,98952.28
2023-03-25T19:49:13.717Z,98950.50
2023-03-25T19:51:45.336Z,98950.56
2023-03-25T19:54:15.499Z,98950.56
2023-03-25T19:56:45.180Z,98944.47
2023-03-25T19:59:17.531Z,98953.25
2023-03-25T20:01:47.264Z,98948.00
2023-03-25T20:04:17.084Z,98951.56
2023-03-25T20:06:47.837Z,98953.38
2023-03-25T20:09:17.425Z,98947.34
2023-03-25T20:11:47.953Z,98952.59
2023-03-25T20:14:20.145Z,98948.28
2023-03-25T20:16:49.735Z,98956.25
2023-03-25T20:19:19.308Z,98958.03
2023-03-25T20:21:48.825Z,98957.16
2023-03-25T20:24:18.421Z,98951.09
2023-03-25T20:26:48.517Z,98951.09
2023-03-25T20:29:22.446Z,98947.59
2023-03-25T20:31:52.957Z,98952.88
2023-03-25T20:34:22.545Z,98950.22
2023-03-25T20:36:52.320Z,98945.03
2023-03-25T20:39:23.208Z,98950.25
2023-03-25T20:41:52.979Z,98948.56
2023-03-25T20:44:25.190Z,98942.34
2023-03-25T20:46:54.768Z,98939.72
2023-03-25T20:49:24.480Z,98944.97
2023-03-25T20:51:54.749Z,98941.47
2023-03-25T20:54:25.341Z,98936.19
2023-03-25T20:56:54.940Z,98939.72
2023-03-25T20:59:27.375Z,98936.22
2023-03-25T21:01:57.138Z,98931.75
2023-03-25T21:04:28.117Z,98947.44
2023-03-25T21:06:57.733Z,98941.28
2023-03-25T21:09:27.456Z,98937.75
2023-03-25T21:11:57.003Z,98930.75
2023-03-25T21:14:29.197Z,98938.56
2023-03-25T21:16:58.777Z,98938.56
2023-03-25T21:19:28.382Z,98937.63
2023-03-25T21:21:58.278Z,98940.22
2023-03-25T21:24:27.837Z,98941.06
2023-03-25T21:26:57.361Z,98941.88
2023-03-25T21:29:29.572Z,98927.91
2023-03-25T21:31:59.268Z,98934.84
2023-03-25T21:34:30.441Z,98929.53
2023-03-25T21:37:01.026Z,98931.31
2023-03-25T21:39:30.625Z,98928.69
2023-03-25T21:42:00.184Z,98929.50
2023-03-25T21:44:43.153Z,98934.81
2023-03-25T21:47:14.583Z,98940.03
2023-03-25T21:49:44.071Z,98937.47
2023-03-25T21:52:13.809Z,98947.03
2023-03-25T21:54:44.000Z,98942.66
2023-03-25T21:57:14.055Z,98943.53
2023-03-25T21:59:46.552Z,98941.81
2023-03-25T22:02:17.310Z,98942.69
2023-03-25T22:04:46.861Z,98932.16
2023-03-25T22:07:16.605Z,98938.31
2023-03-25T22:09:48.157Z,98931.28
2023-03-25T22:12:17.762Z,98934.78
2023-03-25T22:14:49.890Z,98934.00
2023-03-25T22:17:19.457Z,98930.44
2023-03-25T22:19:50.803Z,98923.47
2023-03-25T22:22:21.746Z,98924.28
2023-03-25T22:24:52.288Z,98906.88
2023-03-25T22:27:21.853Z,98912.06
2023-03-25T22:29:53.907Z,98912.13
2023-03-25T22:32:27.343Z,98903.41
2023-03-25T22:34:57.225Z,98907.78
2023-03-25T22:37:26.780Z,98908.66
2023-03-25T22:39:56.326Z,98907.78
2023-03-25T22:42:25.919Z,98899.09
2023-03-25T22:44:58.040Z,98912.22
2023-03-25T22:47:27.561Z,98901.75
2023-03-25T22:49:57.126Z,98906.94
2023-03-25T22:52:26.664Z,98904.28
2023-03-25T22:54:56.344Z,98900.75
2023-03-25T22:57:26.073Z,98905.97
2023-03-25T22:59:58.158Z,98906.78
2023-03-25T23:02:27.645Z,98908.53
2023-03-25T23:04:58.527Z,98906.81
2023-03-25T23:07:28.154Z,98899.09
2023-03-25T23:09:57.683Z,98895.59
2023-03-25T23:12:28.945Z,98900.91
2023-03-25T23:15:01.183Z,98904.38
2023-03-25T23:17:30.918Z,98897.44
2023-03-25T23:20:00.554Z,98901.03
2023-03-25T23:22:31.059Z,98900.16
2023-03-25T23:25:00.684Z,98902.88
2023-03-25T23:27:30.799Z,98896.75
2023-03-25T23:30:03.262Z,98889.81
2023-03-25T23:32:32.857Z,98888.09
2023-03-25T23:35:03.486Z,98886.38
2023-03-25T23:37:34.312Z,98886.38
2023-03-25T23:40:04.522Z,98885.50
2023-03-25T23:42:35.407Z,98879.44
2023-03-25T23:45:08.842Z,98881.22
2023-03-25T23:47:38.385Z,98886.44
2023-03-25T23:50:09.277Z,98882.94
2023-03-25T23:52:38.827Z,98878.59
2023-03-25T23:55:12.488Z,98882.06
2023-03-25T23:57:42.037Z,98872.50
